createdAt,value
2023-03-15T00:00:31.711Z,8.00
2023-03-15T00:04:55.536Z,8.30
2023-03-15T00:09:22.313Z,5.85
2023-03-15T00:13:48.291Z,10.63
2023-03-15T00:18:12.078Z,11.90
2023-03-15T00:22:36.061Z,9.20
2023-03-15T00:27:01.441Z,9.45
2023-03-15T00:31:26.942Z,6.05
2023-03-15T00:35:53.743Z,5.83
2023-03-15T00:40:18.199Z,9.55
2023-03-15T00:44:44.087Z,8.00
2023-03-15T00:49:08.481Z,9.30
2023-03-15T00:53:32.367Z,7.85
2023-03-15T00:57:56.565Z,14.52
2023-03-15T01:02:22.328Z,9.18
2023-03-15T01:06:46.385Z,7.30
2023-03-15T01:11:13.432Z,11.18
2023-03-15T01:15:37.523Z,9.25
2023-03-15T01:20:05.535Z,7.43
2023-03-15T01:24:29.477Z,8.70
2023-03-15T01:28:53.661Z,9.30
2023-03-15T01:33:17.639Z,5.17
2023-03-15T01:37:43.126Z,6.43
2023-03-15T01:42:07.940Z,12.07
2023-03-15T01:46:34.405Z,7.40
2023-03-15T01:51:17.894Z,5.53
2023-03-15T01:55:43.409Z,9.13
2023-03-15T02:00:14.051Z,9.13
2023-03-15T02:04:53.351Z,8.37
2023-03-15T02:09:22.182Z,9.27
2023-03-15T02:13:49.588Z,5.65
2023-03-15T02:18:13.935Z,5.33
2023-03-15T02:22:48.509Z,7.05
2023-03-15T02:27:13.062Z,10.43
2023-03-15T02:31:40.692Z,5.20
2023-03-15T02:36:11.597Z,11.43
2023-03-15T02:40:35.954Z,9.50
2023-03-15T02:45:00.016Z,8.27
2023-03-15T02:49:31.245Z,16.23
2023-03-15T02:53:55.345Z,10.43
2023-03-15T02:58:19.189Z,11.45
2023-03-15T03:02:44.283Z,8.17
2023-03-15T03:07:09.816Z,8.88
2023-03-15T03:11:43.936Z,11.85
2023-03-15T03:16:09.063Z,9.32
2023-03-15T03:20:33.613Z,10.60
2023-03-15T03:24:59.513Z,7.22
2023-03-15T03:29:23.728Z,13.23
2023-03-15T03:33:47.832Z,8.90
2023-03-15T03:38:12.433Z,6.85
2023-03-15T03:42:41.136Z,5.45
2023-03-15T03:47:05.787Z,12.90
2023-03-15T03:51:29.828Z,8.30
2023-03-15T03:55:54.811Z,7.72
2023-03-15T04:00:22.632Z,7.72
2023-03-15T04:04:50.358Z,9.43
2023-03-15T04:09:18.064Z,8.40
2023-03-15T04:13:45.499Z,8.20
2023-03-15T04:18:10.884Z,6.70
2023-03-15T04:22:37.946Z,4.93
2023-03-15T04:27:28.340Z,10.43
2023-03-15T04:32:14.008Z,9.00
2023-03-15T04:36:58.444Z,5.57
2023-03-15T04:41:41.366Z,4.53
2023-03-15T04:46:18.275Z,8.32
2023-03-15T04:51:02.712Z,8.67
2023-03-15T04:55:39.952Z,8.65
2023-03-15T05:00:20.303Z,10.38
2023-03-15T05:05:02.604Z,9.27
2023-03-15T05:09:48.682Z,8.32
2023-03-15T05:14:43.466Z,11.40
2023-03-15T05:19:26.376Z,8.73
2023-03-15T05:23:59.999Z,8.80
2023-03-15T05:28:47.400Z,9.20
2023-03-15T05:33:31.607Z,6.35
2023-03-15T05:38:15.012Z,11.03
2023-03-15T05:43:00.333Z,10.63
2023-03-15T05:47:39.882Z,8.27
2023-03-15T05:52:14.620Z,10.63
2023-03-15T05:56:55.233Z,10.63
2023-03-15T06:01:21.862Z,5.57
2023-03-15T06:06:06.140Z,4.37
2023-03-15T06:10:37.680Z,4.18
2023-03-15T06:15:05.924Z,7.95
2023-03-15T06:19:31.017Z,6.88
2023-03-15T06:23:55.169Z,10.23
2023-03-15T06:28:21.728Z,8.88
2023-03-15T06:32:51.288Z,8.23
2023-03-15T06:37:25.624Z,9.67
2023-03-15T06:41:57.430Z,9.25
2023-03-15T06:46:25.468Z,12.43
2023-03-15T06:50:49.862Z,11.93
2023-03-15T06:55:18.170Z,10.75
2023-03-15T06:59:43.022Z,9.35
2023-03-15T07:04:09.705Z,12.38
2023-03-15T07:08:33.818Z,12.80
2023-03-15T07:12:57.993Z,6.55
2023-03-15T07:17:21.972Z,7.93
2023-03-15T07:21:47.812Z,9.67
2023-03-15T07:26:12.277Z,8.52
2023-03-15T07:30:36.059Z,8.82
2023-03-15T07:35:00.775Z,6.37
2023-03-15T07:39:26.929Z,11.27
2023-03-15T07:43:50.724Z,10.93
2023-03-15T07:48:15.589Z,13.57
2023-03-15T07:52:39.437Z,12.60
2023-03-15T07:57:05.432Z,8.88
2023-03-15T08:01:29.369Z,13.88
2023-03-15T08:05:53.678Z,11.90
2023-03-15T08:10:18.685Z,10.52
2023-03-15T08:14:44.198Z,11.93
2023-03-15T08:19:09.234Z,11.17
2023-03-15T08:23:33.221Z,13.52
2023-03-15T08:27:57.154Z,11.18
2023-03-15T08:32:22.655Z,14.25
2023-03-15T08:36:48.477Z,10.20
2023-03-15T08:41:12.533Z,8.40
2023-03-15T08:45:51.088Z,8.50
2023-03-15T08:50:21.831Z,8.30
2023-03-15T08:54:45.854Z,9.77
2023-03-15T08:59:11.411Z,8.68
2023-03-15T09:03:37.231Z,8.60
2023-03-15T09:08:03.542Z,10.55
2023-03-15T09:12:28.515Z,9.88
2023-03-15T09:16:52.697Z,7.35
2023-03-15T09:21:17.407Z,12.70
2023-03-15T09:25:43.082Z,8.68
2023-03-15T09:30:08.213Z,9.93
2023-03-15T09:34:39.833Z,9.73
2023-03-15T09:39:06.569Z,8.48
2023-03-15T09:43:49.986Z,7.35
2023-03-15T09:48:21.033Z,6.73
2023-03-15T09:52:47.527Z,8.95
2023-03-15T09:57:16.641Z,5.45
2023-03-15T10:01:43.721Z,6.72
2023-03-15T10:06:14.553Z,8.33
2023-03-15T10:10:46.401Z,5.50
2023-03-15T10:15:25.034Z,6.05
2023-03-15T10:19:52.579Z,5.83
2023-03-15T10:24:21.047Z,5.50
2023-03-15T10:28:45.988Z,5.03
2023-03-15T10:33:18.323Z,5.67
2023-03-15T10:37:44.677Z,6.43
2023-03-15T10:42:09.455Z,5.95
2023-03-15T10:46:35.540Z,5.68
2023-03-15T10:51:05.447Z,6.10
2023-03-15T10:55:34.835Z,8.65
2023-03-15T11:00:06.649Z,6.57
2023-03-15T11:04:33.821Z,6.90
2023-03-15T11:09:14.731Z,6.95
2023-03-15T11:13:41.724Z,6.57
2023-03-15T11:18:09.461Z,5.33
2023-03-15T11:22:34.345Z,8.10
2023-03-15T11:27:03.561Z,7.78
2023-03-15T11:31:30.248Z,6.88
2023-03-15T11:36:03.978Z,6.90
2023-03-15T11:40:34.678Z,6.22
2023-03-15T11:45:03.611Z,6.00
2023-03-15T11:49:38.188Z,4.40
2023-03-15T11:54:09.149Z,5.45
2023-03-15T11:58:35.787Z,6.20
2023-03-15T12:03:02.813Z,2.63
2023-03-15T12:07:38.220Z,4.80
2023-03-15T12:12:05.107Z,4.13
2023-03-15T12:16:32.372Z,4.85
2023-03-15T12:21:19.762Z,4.07
2023-03-15T12:25:55.587Z,3.33
2023-03-15T12:30:24.120Z,4.38
2023-03-15T12:34:51.243Z,3.43
2023-03-15T12:39:39.726Z,3.70
2023-03-15T12:44:21.957Z,3.58
2023-03-15T12:49:07.165Z,5.03
2023-03-15T12:53:55.711Z,3.83
2023-03-15T12:58:23.691Z,4.32
2023-03-15T13:02:52.044Z,5.00
2023-03-15T13:07:25.736Z,3.97
2023-03-15T13:11:58.359Z,4.22
2023-03-15T13:16:31.033Z,6.22
2023-03-15T13:21:12.699Z,4.47
2023-03-15T13:25:46.044Z,4.63
2023-03-15T13:30:35.972Z,6.25
2023-03-15T13:34:54.424Z,4.57
2023-03-15T13:39:24.421Z,7.25
2023-03-15T13:43:50.597Z,5.35
2023-03-15T13:48:14.832Z,5.20
2023-03-15T13:52:38.763Z,5.97
2023-03-15T13:57:07.450Z,6.28
2023-03-15T14:01:35.538Z,4.80
2023-03-15T14:06:00.937Z,4.47
2023-03-15T14:10:32.165Z,4.68
2023-03-15T14:15:00.406Z,5.75
2023-03-15T14:19:26.611Z,4.80
2023-03-15T14:23:52.069Z,6.13
2023-03-15T14:28:18.613Z,9.50
2023-03-15T14:32:54.204Z,5.82
2023-03-15T14:37:31.851Z,6.73
2023-03-15T14:41:56.421Z,4.38
2023-03-15T14:46:21.940Z,5.35
2023-03-15T14:50:50.515Z,6.77
2023-03-15T14:55:18.032Z,4.60
2023-03-15T14:59:42.019Z,6.63
2023-03-15T15:04:06.434Z,5.83
2023-03-15T15:08:33.703Z,5.90
2023-03-15T15:13:06.019Z,6.53
2023-03-15T15:17:31.422Z,6.70
2023-03-15T15:21:56.477Z,5.33
2023-03-15T15:26:26.278Z,5.35
2023-03-15T15:30:53.280Z,8.63
2023-03-15T15:35:19.074Z,7.37
2023-03-15T15:39:43.004Z,10.82
2023-03-15T15:44:15.588Z,11.63
2023-03-15T15:48:40.371Z,14.03
2023-03-15T15:53:07.202Z,10.75
2023-03-15T15:57:31.212Z,8.88
2023-03-15T16:02:02.226Z,8.07
2023-03-15T16:06:26.648Z,7.27
2023-03-15T16:10:50.482Z,6.80
2023-03-15T16:15:15.639Z,7.32
2023-03-15T16:19:40.957Z,7.87
2023-03-15T16:24:08.975Z,9.07
2023-03-15T16:28:33.314Z,8.05
2023-03-15T16:32:58.710Z,9.70
2023-03-15T16:37:26.371Z,8.00
2023-03-15T16:41:52.272Z,9.40
2023-03-15T16:46:17.516Z,6.78
2023-03-15T16:50:43.430Z,9.50
2023-03-15T16:55:12.214Z,10.13
2023-03-15T16:59:36.688Z,9.18
2023-03-15T17:04:01.275Z,5.30
2023-03-15T17:08:25.696Z,11.18
2023-03-15T17:12:52.683Z,8.88
2023-03-15T17:17:16.894Z,10.17
2023-03-15T17:21:41.570Z,8.55
2023-03-15T17:26:05.554Z,7.13
2023-03-15T17:30:31.968Z,7.40
2023-03-15T17:34:59.025Z,8.23
2023-03-15T17:39:23.280Z,6.78
2023-03-15T17:43:47.595Z,6.15
2023-03-15T17:48:13.004Z,6.00
2023-03-15T17:52:37.671Z,7.80
2023-03-15T17:57:01.936Z,10.60
2023-03-15T18:01:28.235Z,8.03
2023-03-15T18:05:53.548Z,8.32
2023-03-15T18:10:20.768Z,6.97
2023-03-15T18:14:44.726Z,8.38
2023-03-15T18:19:08.702Z,10.90
2023-03-15T18:23:33.955Z,7.55
2023-03-15T18:27:58.021Z,6.72
2023-03-15T18:32:22.048Z,5.93
2023-03-15T18:36:46.365Z,6.80
2023-03-15T18:41:20.325Z,8.35
2023-03-15T18:45:44.601Z,10.77
2023-03-15T18:50:10.906Z,9.30
2023-03-15T18:54:35.341Z,6.80
2023-03-15T18:59:01.230Z,8.10
2023-03-15T19:03:25.282Z,7.00
2023-03-15T19:07:49.613Z,8.43
2023-03-15T19:12:13.505Z,6.85
2023-03-15T19:16:38.791Z,9.10
2023-03-15T19:21:03.860Z,11.30
2023-03-15T19:25:28.251Z,7.75
2023-03-15T19:29:52.205Z,8.70
2023-03-15T19:34:17.396Z,8.35
2023-03-15T19:38:41.415Z,8.85
2023-03-15T19:43:05.380Z,12.93
2023-03-15T19:47:29.367Z,11.83
2023-03-15T19:51:54.726Z,8.18
2023-03-15T19:56:18.750Z,9.13
2023-03-15T20:00:42.744Z,7.93
2023-03-15T20:05:08.785Z,10.48
2023-03-15T20:09:38.083Z,11.10
2023-03-15T20:14:02.217Z,10.67
2023-03-15T20:18:26.125Z,11.75
2023-03-15T20:22:50.346Z,11.85
2023-03-15T20:27:15.609Z,11.68
2023-03-15T20:31:39.816Z,12.07
2023-03-15T20:36:04.274Z,8.70
2023-03-15T20:40:28.162Z,8.50
2023-03-15T20:44:53.925Z,9.17
2023-03-15T20:49:17.913Z,8.45
2023-03-15T20:53:41.986Z,8.43
2023-03-15T20:58:06.360Z,10.13
2023-03-15T21:02:31.803Z,12.65
2023-03-15T21:06:55.881Z,9.63
2023-03-15T21:11:19.719Z,7.30
2023-03-15T21:15:45.958Z,7.77
2023-03-15T21:20:15.433Z,7.40
2023-03-15T21:24:52.915Z,9.00
2023-03-15T21:29:18.751Z,6.53
2023-03-15T21:33:42.894Z,10.73
2023-03-15T21:38:08.396Z,8.55
2023-03-15T21:42:33.304Z,9.30
2023-03-15T21:46:57.756Z,8.57
2023-03-15T21:51:22.297Z,7.70
2023-03-15T21:55:48.168Z,9.77
2023-03-15T22:00:16.607Z,10.03
2023-03-15T22:04:42.179Z,10.23
2023-03-15T22:09:06.158Z,9.57
2023-03-15T22:13:31.737Z,10.03
2023-03-15T22:17:55.719Z,9.20
2023-03-15T22:22:20.364Z,8.85
2023-03-15T22:26:44.770Z,9.90
2023-03-15T22:31:12.265Z,8.73
2023-03-15T22:35:36.393Z,15.30
2023-03-15T22:40:00.558Z,10.07
2023-03-15T22:44:24.675Z,14.10
2023-03-15T22:48:50.019Z,12.15
2023-03-15T22:53:13.859Z,14.73
2023-03-15T22:57:38.051Z,13.27
2023-03-15T23:02:02.201Z,10.80
2023-03-15T23:06:27.462Z,14.98
2023-03-15T23:10:52.155Z,12.03
2023-03-15T23:15:16.027Z,13.18
2023-03-15T23:19:40.546Z,11.95
2023-03-15T23:24:07.116Z,18.42
2023-03-15T23:28:31.097Z,13.47
2023-03-15T23:32:58.914Z,13.90
2023-03-15T23:37:23.469Z,13.43
2023-03-15T23:41:48.910Z,13.80
2023-03-15T23:46:08.094Z,11.00
2023-03-15T23:50:32.412Z,11.63
2023-03-15T23:54:58.419Z,9.50
2023-03-15T23:59:29.075Z,12.85
